sensor_id;sensor_type;location;lat;lon;timestamp;temperature;humidity
70184;DHT22;57554;51.546;6.776;2023-05-02T00:01:20;11.50;68.20
70184;DHT22;57554;51.546;6.776;2023-05-02T00:03:54;11.50;69.00
70184;DHT22;57554;51.546;6.776;2023-05-02T00:06:23;11.50;69.40
70184;DHT22;57554;51.546;6.776;2023-05-02T00:08:51;11.40;69.90
70184;DHT22;57554;51.546;6.776;2023-05-02T00:11:26;11.40;70.60
70184;DHT22;57554;51.546;6.776;2023-05-02T00:14:05;11.40;70.90
70184;DHT22;57554;51.546;6.776;2023-05-02T00:16:59;11.40;71.60
70184;DHT22;57554;51.546;6.776;2023-05-02T00:23:16;11.50;72.00
70184;DHT22;57554;51.546;6.776;2023-05-02T00:25:54;11.60;72.10
70184;DHT22;57554;51.546;6.776;2023-05-02T00:28:23;11.60;72.00
70184;DHT22;57554;51.546;6.776;2023-05-02T00:30:59;11.60;71.90
70184;DHT22;57554;51.546;6.776;2023-05-02T00:33:32;11.70;71.60
70184;DHT22;57554;51.546;6.776;2023-05-02T00:36:15;11.60;71.60
70184;DHT22;57554;51.546;6.776;2023-05-02T00:38:41;11.60;71.40
70184;DHT22;57554;51.546;6.776;2023-05-02T00:41:21;11.60;71.30
70184;DHT22;57554;51.546;6.776;2023-05-02T00:43:53;11.60;71.30
70184;DHT22;57554;51.546;6.776;2023-05-02T00:46:22;11.60;71.30
70184;DHT22;57554;51.546;6.776;2023-05-02T00:48:50;11.60;71.50
70184;DHT22;57554;51.546;6.776;2023-05-02T00:51:19;11.50;71.60
70184;DHT22;57554;51.546;6.776;2023-05-02T00:53:59;11.50;71.80
70184;DHT22;57554;51.546;6.776;2023-05-02T00:56:33;11.60;72.10
70184;DHT22;57554;51.546;6.776;2023-05-02T00:59:13;11.60;72.40
70184;DHT22;57554;51.546;6.776;2023-05-02T01:02:11;11.60;73.10
70184;DHT22;57554;51.546;6.776;2023-05-02T01:14:25;11.70;72.60
70184;DHT22;57554;51.546;6.776;2023-05-02T01:27:30;11.70;73.20
70184;DHT22;57554;51.546;6.776;2023-05-02T01:30:01;11.70;73.30
70184;DHT22;57554;51.546;6.776;2023-05-02T01:32:32;11.70;73.40
70184;DHT22;57554;51.546;6.776;2023-05-02T01:35:04;11.80;73.40
70184;DHT22;57554;51.546;6.776;2023-05-02T01:37:57;11.80;73.20
70184;DHT22;57554;51.546;6.776;2023-05-02T01:40:41;11.80;73.50
70184;DHT22;57554;51.546;6.776;2023-05-02T01:43:19;11.80;73.50
70184;DHT22;57554;51.546;6.776;2023-05-02T01:45:53;11.90;73.30
70184;DHT22;57554;51.546;6.776;2023-05-02T01:48:28;11.90;73.20
70184;DHT22;57554;51.546;6.776;2023-05-02T01:51:00;11.90;73.10
70184;DHT22;57554;51.546;6.776;2023-05-02T01:53:47;11.90;73.00
70184;DHT22;57554;51.546;6.776;2023-05-02T01:56:18;11.90;72.90
70184;DHT22;57554;51.546;6.776;2023-05-02T01:58:55;12.00;72.80
70184;DHT22;57554;51.546;6.776;2023-05-02T02:01:35;12.00;72.60
70184;DHT22;57554;51.546;6.776;2023-05-02T02:04:03;12.00;72.60
70184;DHT22;57554;51.546;6.776;2023-05-02T02:06:48;12.00;72.70
70184;DHT22;57554;51.546;6.776;2023-05-02T02:09:24;12.00;72.80
70184;DHT22;57554;51.546;6.776;2023-05-02T02:14:44;11.90;73.20
70184;DHT22;57554;51.546;6.776;2023-05-02T02:17:35;11.90;73.30
70184;DHT22;57554;51.546;6.776;2023-05-02T02:20:07;11.90;73.40
70184;DHT22;57554;51.546;6.776;2023-05-02T02:22:39;11.90;73.40
70184;DHT22;57554;51.546;6.776;2023-05-02T02:25:24;11.90;73.40
70184;DHT22;57554;51.546;6.776;2023-05-02T02:27:51;11.90;73.50
70184;DHT22;57554;51.546;6.776;2023-05-02T02:30:18;11.90;73.60
70184;DHT22;57554;51.546;6.776;2023-05-02T02:32:43;11.90;73.60
70184;DHT22;57554;51.546;6.776;2023-05-02T02:35:14;11.90;73.60
70184;DHT22;57554;51.546;6.776;2023-05-02T02:41:15;11.90;73.50
70184;DHT22;57554;51.546;6.776;2023-05-02T02:47:28;12.00;73.10
70184;DHT22;57554;51.546;6.776;2023-05-02T03:00:45;12.00;72.90
70184;DHT22;57554;51.546;6.776;2023-05-02T03:03:19;12.00;72.90
70184;DHT22;57554;51.546;6.776;2023-05-02T03:05:47;12.00;72.90
70184;DHT22;57554;51.546;6.776;2023-05-02T03:18:06;12.00;73.30
70184;DHT22;57554;51.546;6.776;2023-05-02T03:20:32;12.00;73.20
70184;DHT22;57554;51.546;6.776;2023-05-02T03:23:07;11.90;73.30
70184;DHT22;57554;51.546;6.776;2023-05-02T03:25:35;12.00;73.30
70184;DHT22;57554;51.546;6.776;2023-05-02T03:28:02;12.00;73.40
70184;DHT22;57554;51.546;6.776;2023-05-02T03:30:54;12.00;73.40
70184;DHT22;57554;51.546;6.776;2023-05-02T03:33:35;12.00;73.50
70184;DHT22;57554;51.546;6.776;2023-05-02T03:36:39;12.00;73.40
70184;DHT22;57554;51.546;6.776;2023-05-02T03:39:31;12.00;73.90
70184;DHT22;57554;51.546;6.776;2023-05-02T03:42:16;11.90;74.10
70184;DHT22;57554;51.546;6.776;2023-05-02T03:45:05;11.90;74.40
70184;DHT22;57554;51.546;6.776;2023-05-02T03:47:34;11.80;74.40
70184;DHT22;57554;51.546;6.776;2023-05-02T03:50:09;11.80;74.60
70184;DHT22;57554;51.546;6.776;2023-05-02T03:52:35;11.80;74.70
70184;DHT22;57554;51.546;6.776;2023-05-02T03:55:04;11.80;74.80
70184;DHT22;57554;51.546;6.776;2023-05-02T03:57:43;11.70;74.90
70184;DHT22;57554;51.546;6.776;2023-05-02T04:00:11;11.70;75.10
70184;DHT22;57554;51.546;6.776;2023-05-02T04:02:37;11.70;75.20
70184;DHT22;57554;51.546;6.776;2023-05-02T04:05:06;11.70;75.40
70184;DHT22;57554;51.546;6.776;2023-05-02T04:07:40;11.70;75.40
70184;DHT22;57554;51.546;6.776;2023-05-02T04:10:06;11.70;75.50
70184;DHT22;57554;51.546;6.776;2023-05-02T04:12:40;11.70;75.40
70184;DHT22;57554;51.546;6.776;2023-05-02T04:15:06;11.70;75.40
70184;DHT22;57554;51.546;6.776;2023-05-02T04:18:01;11.70;75.50
70184;DHT22;57554;51.546;6.776;2023-05-02T04:20:52;11.70;75.80
70184;DHT22;57554;51.546;6.776;2023-05-02T04:23:21;11.70;75.90
70184;DHT22;57554;51.546;6.776;2023-05-02T04:26:22;11.70;75.80
70184;DHT22;57554;51.546;6.776;2023-05-02T04:28:51;11.70;76.00
70184;DHT22;57554;51.546;6.776;2023-05-02T04:34:29;11.70;75.90
70184;DHT22;57554;51.546;6.776;2023-05-02T04:36:58;11.70;76.00
70184;DHT22;57554;51.546;6.776;2023-05-02T04:39:45;11.80;75.90
70184;DHT22;57554;51.546;6.776;2023-05-02T04:42:24;11.80;75.80
70184;DHT22;57554;51.546;6.776;2023-05-02T04:44:50;11.80;75.90
70184;DHT22;57554;51.546;6.776;2023-05-02T04:47:16;11.80;75.70
70184;DHT22;57554;51.546;6.776;2023-05-02T04:49:42;11.90;75.60
70184;DHT22;57554;51.546;6.776;2023-05-02T04:52:09;11.80;75.50
70184;DHT22;57554;51.546;6.776;2023-05-02T04:54:47;11.90;75.40
70184;DHT22;57554;51.546;6.776;2023-05-02T04:57:13;11.90;75.40
70184;DHT22;57554;51.546;6.776;2023-05-02T05:06:30;11.90;75.10
70184;DHT22;57554;51.546;6.776;2023-05-02T05:08:59;11.90;74.90
70184;DHT22;57554;51.546;6.776;2023-05-02T05:11:27;11.90;74.70
70184;DHT22;57554;51.546;6.776;2023-05-02T05:13:53;11.90;74.70
70184;DHT22;57554;51.546;6.776;2023-05-02T05:16:22;11.90;74.50
70184;DHT22;57554;51.546;6.776;2023-05-02T05:18:48;11.90;74.20
70184;DHT22;57554;51.546;6.776;2023-05-02T05:21:14;11.90;74.10
70184;DHT22;57554;51.546;6.776;2023-05-02T05:23:39;11.90;74.00
70184;DHT22;57554;51.546;6.776;2023-05-02T05:26:16;11.90;73.90
70184;DHT22;57554;51.546;6.776;2023-05-02T05:28:42;11.90;73.80
70184;DHT22;57554;51.546;6.776;2023-05-02T05:31:17;11.90;73.60
70184;DHT22;57554;51.546;6.776;2023-05-02T05:33:43;11.90;73.50
70184;DHT22;57554;51.546;6.776;2023-05-02T05:36:11;11.90;73.40
70184;DHT22;57554;51.546;6.776;2023-05-02T05:38:37;11.90;73.20
70184;DHT22;57554;51.546;6.776;2023-05-02T05:41:06;11.90;73.10
70184;DHT22;57554;51.546;6.776;2023-05-02T05:43:32;11.90;73.00
70184;DHT22;57554;51.546;6.776;2023-05-02T05:46:01;12.00;72.90
70184;DHT22;57554;51.546;6.776;2023-05-02T05:48:36;12.00;72.70
70184;DHT22;57554;51.546;6.776;2023-05-02T05:51:09;12.00;72.60
70184;DHT22;57554;51.546;6.776;2023-05-02T05:53:36;12.00;72.50
70184;DHT22;57554;51.546;6.776;2023-05-02T05:56:11;12.00;72.40
70184;DHT22;57554;51.546;6.776;2023-05-02T05:58:38;12.00;72.40
70184;DHT22;57554;51.546;6.776;2023-05-02T06:01:04;12.00;72.20
70184;DHT22;57554;51.546;6.776;2023-05-02T06:03:29;12.10;72.20
70184;DHT22;57554;51.546;6.776;2023-05-02T06:05:55;12.10;72.10
70184;DHT22;57554;51.546;6.776;2023-05-02T06:08:21;12.20;72.00
70184;DHT22;57554;51.546;6.776;2023-05-02T06:10:47;12.20;71.90
70184;DHT22;57554;51.546;6.776;2023-05-02T06:13:13;12.30;71.70
70184;DHT22;57554;51.546;6.776;2023-05-02T06:15:45;12.40;71.60
70184;DHT22;57554;51.546;6.776;2023-05-02T06:18:13;12.40;71.30
70184;DHT22;57554;51.546;6.776;2023-05-02T06:20:42;12.50;70.80
70184;DHT22;57554;51.546;6.776;2023-05-02T06:23:08;12.50;70.70
70184;DHT22;57554;51.546;6.776;2023-05-02T06:25:38;12.50;70.10
70184;DHT22;57554;51.546;6.776;2023-05-02T06:28:04;12.40;69.70
70184;DHT22;57554;51.546;6.776;2023-05-02T06:30:30;12.40;70.00
70184;DHT22;57554;51.546;6.776;2023-05-02T06:32:56;12.40;69.90
70184;DHT22;57554;51.546;6.776;2023-05-02T06:35:24;12.30;69.80
70184;DHT22;57554;51.546;6.776;2023-05-02T06:37:50;12.30;69.60
70184;DHT22;57554;51.546;6.776;2023-05-02T06:40:16;12.20;69.60
70184;DHT22;57554;51.546;6.776;2023-05-02T06:42:41;12.20;69.50
70184;DHT22;57554;51.546;6.776;2023-05-02T06:45:07;12.10;69.50
70184;DHT22;57554;51.546;6.776;2023-05-02T06:47:33;12.10;69.40
70184;DHT22;57554;51.546;6.776;2023-05-02T06:50:02;12.10;69.50
70184;DHT22;57554;51.546;6.776;2023-05-02T06:52:28;12.10;69.40
70184;DHT22;57554;51.546;6.776;2023-05-02T06:54:54;12.10;69.30
70184;DHT22;57554;51.546;6.776;2023-05-02T06:57:20;12.10;69.00
70184;DHT22;57554;51.546;6.776;2023-05-02T06:59:46;12.10;68.80
70184;DHT22;57554;51.546;6.776;2023-05-02T07:02:19;12.00;68.60
70184;DHT22;57554;51.546;6.776;2023-05-02T07:04:53;12.00;68.60
70184;DHT22;57554;51.546;6.776;2023-05-02T07:07:19;12.00;68.60
70184;DHT22;57554;51.546;6.776;2023-05-02T07:09:46;12.00;68.50
70184;DHT22;57554;51.546;6.776;2023-05-02T07:12:12;12.10;68.50
70184;DHT22;57554;51.546;6.776;2023-05-02T07:14:38;12.10;68.20
70184;DHT22;57554;51.546;6.776;2023-05-02T07:17:04;12.10;67.90
70184;DHT22;57554;51.546;6.776;2023-05-02T07:19:30;12.20;67.90
70184;DHT22;57554;51.546;6.776;2023-05-02T07:21:58;12.20;67.90
70184;DHT22;57554;51.546;6.776;2023-05-02T07:24:28;12.30;68.00
70184;DHT22;57554;51.546;6.776;2023-05-02T07:26:54;12.30;67.80
70184;DHT22;57554;51.546;6.776;2023-05-02T07:29:20;12.30;67.20
70184;DHT22;57554;51.546;6.776;2023-05-02T07:31:46;12.30;66.90
70184;DHT22;57554;51.546;6.776;2023-05-02T07:34:12;12.30;66.90
70184;DHT22;57554;51.546;6.776;2023-05-02T07:36:38;12.30;66.90
70184;DHT22;57554;51.546;6.776;2023-05-02T07:39:03;12.40;66.90
70184;DHT22;57554;51.546;6.776;2023-05-02T07:41:29;12.50;66.70
70184;DHT22;57554;51.546;6.776;2023-05-02T07:43:55;12.60;66.50
70184;DHT22;57554;51.546;6.776;2023-05-02T07:46:22;12.70;66.20
70184;DHT22;57554;51.546;6.776;2023-05-02T07:48:48;12.70;66.10
70184;DHT22;57554;51.546;6.776;2023-05-02T07:51:14;12.80;65.80
70184;DHT22;57554;51.546;6.776;2023-05-02T07:53:40;12.80;65.50
70184;DHT22;57554;51.546;6.776;2023-05-02T07:56:06;12.80;65.00
70184;DHT22;57554;51.546;6.776;2023-05-02T07:58:38;12.70;64.40
70184;DHT22;57554;51.546;6.776;2023-05-02T08:01:04;12.60;63.90
70184;DHT22;57554;51.546;6.776;2023-05-02T08:03:32;12.40;63.80
70184;DHT22;57554;51.546;6.776;2023-05-02T08:06:03;12.30;63.70
70184;DHT22;57554;51.546;6.776;2023-05-02T08:08:29;12.20;63.80
70184;DHT22;57554;51.546;6.776;2023-05-02T08:10:55;12.10;64.00
70184;DHT22;57554;51.546;6.776;2023-05-02T08:13:30;12.00;64.30
70184;DHT22;57554;51.546;6.776;2023-05-02T08:15:58;12.00;64.40
70184;DHT22;57554;51.546;6.776;2023-05-02T08:18:27;12.00;64.50
70184;DHT22;57554;51.546;6.776;2023-05-02T08:20:54;12.00;64.50
70184;DHT22;57554;51.546;6.776;2023-05-02T08:23:25;12.00;64.20
70184;DHT22;57554;51.546;6.776;2023-05-02T08:25:52;12.00;64.10
70184;DHT22;57554;51.546;6.776;2023-05-02T08:28:20;12.10;64.10
70184;DHT22;57554;51.546;6.776;2023-05-02T08:30:46;12.20;64.20
70184;DHT22;57554;51.546;6.776;2023-05-02T08:33:15;12.30;64.10
70184;DHT22;57554;51.546;6.776;2023-05-02T08:35:41;12.40;64.00
70184;DHT22;57554;51.546;6.776;2023-05-02T08:38:06;12.60;63.80
70184;DHT22;57554;51.546;6.776;2023-05-02T08:40:37;12.70;63.50
70184;DHT22;57554;51.546;6.776;2023-05-02T08:43:03;12.80;63.00
70184;DHT22;57554;51.546;6.776;2023-05-02T08:45:42;12.90;62.60
70184;DHT22;57554;51.546;6.776;2023-05-02T08:48:27;13.00;62.20
70184;DHT22;57554;51.546;6.776;2023-05-02T08:50:55;13.10;61.70
70184;DHT22;57554;51.546;6.776;2023-05-02T08:53:33;13.20;61.70
70184;DHT22;57554;51.546;6.776;2023-05-02T08:56:05;13.40;61.40
70184;DHT22;57554;51.546;6.776;2023-05-02T08:58:31;13.50;60.80
70184;DHT22;57554;51.546;6.776;2023-05-02T09:01:06;13.60;60.60
70184;DHT22;57554;51.546;6.776;2023-05-02T09:03:38;13.80;60.40
70184;DHT22;57554;51.546;6.776;2023-05-02T09:06:22;13.90;59.60
70184;DHT22;57554;51.546;6.776;2023-05-02T09:08:50;14.00;58.10
70184;DHT22;57554;51.546;6.776;2023-05-02T09:11:24;14.00;57.60
70184;DHT22;57554;51.546;6.776;2023-05-02T09:13:54;14.00;57.20
70184;DHT22;57554;51.546;6.776;2023-05-02T09:16:24;14.10;57.10
70184;DHT22;57554;51.546;6.776;2023-05-02T09:18:58;14.30;56.90
70184;DHT22;57554;51.546;6.776;2023-05-02T09:21:35;14.50;57.00
70184;DHT22;57554;51.546;6.776;2023-05-02T09:24:02;14.80;56.30
70184;DHT22;57554;51.546;6.776;2023-05-02T09:26:55;15.20;56.40
70184;DHT22;57554;51.546;6.776;2023-05-02T09:29:21;15.70;54.70
70184;DHT22;57554;51.546;6.776;2023-05-02T09:31:49;16.00;53.80
70184;DHT22;57554;51.546;6.776;2023-05-02T09:34:32;16.20;53.30
70184;DHT22;57554;51.546;6.776;2023-05-02T09:37:03;16.40;53.00
70184;DHT22;57554;51.546;6.776;2023-05-02T09:39:34;16.50;52.10
70184;DHT22;57554;51.546;6.776;2023-05-02T09:42:05;16.50;52.10
70184;DHT22;57554;51.546;6.776;2023-05-02T09:44:41;16.40;52.30
70184;DHT22;57554;51.546;6.776;2023-05-02T09:47:09;16.40;52.20
70184;DHT22;57554;51.546;6.776;2023-05-02T09:49:48;16.40;51.70
70184;DHT22;57554;51.546;6.776;2023-05-02T09:52:27;16.40;51.60
70184;DHT22;57554;51.546;6.776;2023-05-02T09:54:53;16.40;51.20
70184;DHT22;57554;51.546;6.776;2023-05-02T09:57:37;16.40;51.00
70184;DHT22;57554;51.546;6.776;2023-05-02T10:00:09;16.40;50.50
70184;DHT22;57554;51.546;6.776;2023-05-02T10:02:46;16.30;50.50
70184;DHT22;57554;51.546;6.776;2023-05-02T10:05:26;16.30;50.60
70184;DHT22;57554;51.546;6.776;2023-05-02T10:11:50;16.40;49.70
70184;DHT22;57554;51.546;6.776;2023-05-02T10:15:06;16.30;49.70
70184;DHT22;57554;51.546;6.776;2023-05-02T10:24:58;16.00;49.70
70184;DHT22;57554;51.546;6.776;2023-05-02T10:27:30;16.00;49.20
70184;DHT22;57554;51.546;6.776;2023-05-02T10:29:58;16.00;49.10
70184;DHT22;57554;51.546;6.776;2023-05-02T10:32:34;16.10;49.20
70184;DHT22;57554;51.546;6.776;2023-05-02T10:35:23;16.20;49.00
70184;DHT22;57554;51.546;6.776;2023-05-02T10:44:36;16.50;48.30
70184;DHT22;57554;51.546;6.776;2023-05-02T10:50:19;16.70;48.50
70184;DHT22;57554;51.546;6.776;2023-05-02T10:52:58;17.10;48.60
70184;DHT22;57554;51.546;6.776;2023-05-02T11:02:47;17.60;44.00
70184;DHT22;57554;51.546;6.776;2023-05-02T11:06:09;17.60;44.90
70184;DHT22;57554;51.546;6.776;2023-05-02T11:09:46;17.50;45.00
70184;DHT22;57554;51.546;6.776;2023-05-02T11:18:09;17.10;44.60
70184;DHT22;57554;51.546;6.776;2023-05-02T11:21:23;17.00;44.50
70184;DHT22;57554;51.546;6.776;2023-05-02T11:23:43;17.10;45.20
70184;DHT22;57554;51.546;6.776;2023-05-02T11:26:28;17.10;44.50
70184;DHT22;57554;51.546;6.776;2023-05-02T11:29:50;17.20;44.80
70184;DHT22;57554;51.546;6.776;2023-05-02T11:33:10;17.20;42.90
70184;DHT22;57554;51.546;6.776;2023-05-02T11:35:24;17.20;43.70
70184;DHT22;57554;51.546;6.776;2023-05-02T11:38:33;17.50;43.70
70184;DHT22;57554;51.546;6.776;2023-05-02T11:41:36;17.80;42.00
70184;DHT22;57554;51.546;6.776;2023-05-02T11:47:51;18.00;42.30
70184;DHT22;57554;51.546;6.776;2023-05-02T11:50:28;18.10;42.00
70184;DHT22;57554;51.546;6.776;2023-05-02T11:56:40;17.70;38.50
70184;DHT22;57554;51.546;6.776;2023-05-02T12:06:53;18.10;40.00
70184;DHT22;57554;51.546;6.776;2023-05-02T12:09:50;18.20;40.80
70184;DHT22;57554;51.546;6.776;2023-05-02T12:15:59;18.40;40.80
70184;DHT22;57554;51.546;6.776;2023-05-02T12:18:38;18.90;39.20
70184;DHT22;57554;51.546;6.776;2023-05-02T12:21:12;19.20;38.00
70184;DHT22;57554;51.546;6.776;2023-05-02T12:23:41;19.70;37.80
70184;DHT22;57554;51.546;6.776;2023-05-02T12:26:53;20.00;36.50
70184;DHT22;57554;51.546;6.776;2023-05-02T12:37:09;19.40;35.30
70184;DHT22;57554;51.546;6.776;2023-05-02T12:40:01;19.00;36.80
70184;DHT22;57554;51.546;6.776;2023-05-02T12:46:15;19.20;36.20
70184;DHT22;57554;51.546;6.776;2023-05-02T12:49:13;18.90;37.50
70184;DHT22;57554;51.546;6.776;2023-05-02T12:52:06;19.10;37.80
70184;DHT22;57554;51.546;6.776;2023-05-02T12:55:17;19.10;36.90
70184;DHT22;57554;51.546;6.776;2023-05-02T12:58:05;19.10;37.10
70184;DHT22;57554;51.546;6.776;2023-05-02T13:04:40;19.20;37.20
70184;DHT22;57554;51.546;6.776;2023-05-02T13:07:44;19.20;37.00
70184;DHT22;57554;51.546;6.776;2023-05-02T13:13:48;18.30;34.40
70184;DHT22;57554;51.546;6.776;2023-05-02T13:16:33;17.90;36.70
70184;DHT22;57554;51.546;6.776;2023-05-02T13:19:04;17.90;36.80
70184;DHT22;57554;51.546;6.776;2023-05-02T13:21:35;17.90;37.20
70184;DHT22;57554;51.546;6.776;2023-05-02T13:24:01;18.00;37.00
70184;DHT22;57554;51.546;6.776;2023-05-02T13:26:29;18.10;37.50
70184;DHT22;57554;51.546;6.776;2023-05-02T13:29:05;18.20;37.60
70184;DHT22;57554;51.546;6.776;2023-05-02T13:32:04;18.10;36.30
70184;DHT22;57554;51.546;6.776;2023-05-02T13:34:35;17.70;36.10
70184;DHT22;57554;51.546;6.776;2023-05-02T13:37:07;17.50;37.60
70184;DHT22;57554;51.546;6.776;2023-05-02T13:39:47;17.50;37.90
70184;DHT22;57554;51.546;6.776;2023-05-02T13:49:09;17.70;39.00
70184;DHT22;57554;51.546;6.776;2023-05-02T13:52:26;18.00;38.90
70184;DHT22;57554;51.546;6.776;2023-05-02T13:55:35;18.40;38.90
70184;DHT22;57554;51.546;6.776;2023-05-02T13:58:08;18.70;38.10
70184;DHT22;57554;51.546;6.776;2023-05-02T14:08:05;19.20;36.80
70184;DHT22;57554;51.546;6.776;2023-05-02T14:24:15;18.50;36.30
70184;DHT22;57554;51.546;6.776;2023-05-02T14:37:25;18.50;35.70
70184;DHT22;57554;51.546;6.776;2023-05-02T14:40:11;18.30;35.90
70184;DHT22;57554;51.546;6.776;2023-05-02T14:46:40;18.20;36.80
70184;DHT22;57554;51.546;6.776;2023-05-02T14:49:06;18.40;36.80
70184;DHT22;57554;51.546;6.776;2023-05-02T14:55:47;18.50;36.70
70184;DHT22;57554;51.546;6.776;2023-05-02T14:58:29;18.50;37.20
70184;DHT22;57554;51.546;6.776;2023-05-02T15:00:59;18.50;36.40
70184;DHT22;57554;51.546;6.776;2023-05-02T15:03:38;18.40;36.20
70184;DHT22;57554;51.546;6.776;2023-05-02T15:06:04;18.50;36.10
70184;DHT22;57554;51.546;6.776;2023-05-02T15:08:43;18.40;36.20
70184;DHT22;57554;51.546;6.776;2023-05-02T15:15:11;18.30;35.70
70184;DHT22;57554;51.546;6.776;2023-05-02T15:17:43;18.20;35.70
70184;DHT22;57554;51.546;6.776;2023-05-02T15:20:10;18.10;36.20
70184;DHT22;57554;51.546;6.776;2023-05-02T15:22:41;18.10;36.30
70184;DHT22;57554;51.546;6.776;2023-05-02T15:25:17;18.20;36.40
70184;DHT22;57554;51.546;6.776;2023-05-02T15:27:42;18.20;35.90
70184;DHT22;57554;51.546;6.776;2023-05-02T15:30:09;18.10;35.80
70184;DHT22;57554;51.546;6.776;2023-05-02T15:32:34;18.10;35.90
70184;DHT22;57554;51.546;6.776;2023-05-02T15:35:00;18.10;35.90
70184;DHT22;57554;51.546;6.776;2023-05-02T15:37:29;18.10;35.70
70184;DHT22;57554;51.546;6.776;2023-05-02T15:39:57;18.10;35.50
70184;DHT22;57554;51.546;6.776;2023-05-02T15:42:24;18.10;35.80
70184;DHT22;57554;51.546;6.776;2023-05-02T15:44:55;18.10;34.70
70184;DHT22;57554;51.546;6.776;2023-05-02T15:47:24;18.00;35.10
70184;DHT22;57554;51.546;6.776;2023-05-02T15:49:50;17.90;35.30
70184;DHT22;57554;51.546;6.776;2023-05-02T15:52:20;18.00;35.20
70184;DHT22;57554;51.546;6.776;2023-05-02T15:54:46;17.90;35.50
70184;DHT22;57554;51.546;6.776;2023-05-02T15:57:12;18.00;35.30
70184;DHT22;57554;51.546;6.776;2023-05-02T15:59:41;18.10;35.50
70184;DHT22;57554;51.546;6.776;2023-05-02T16:02:07;18.10;35.20
70184;DHT22;57554;51.546;6.776;2023-05-02T16:04:37;18.10;35.50
70184;DHT22;57554;51.546;6.776;2023-05-02T16:07:03;18.10;35.30
70184;DHT22;57554;51.546;6.776;2023-05-02T16:09:28;18.10;35.10
70184;DHT22;57554;51.546;6.776;2023-05-02T16:12:05;18.20;35.60
70184;DHT22;57554;51.546;6.776;2023-05-02T16:14:31;18.70;35.00
70184;DHT22;57554;51.546;6.776;2023-05-02T16:17:00;18.80;34.30
70184;DHT22;57554;51.546;6.776;2023-05-02T16:19:25;18.60;34.00
70184;DHT22;57554;51.546;6.776;2023-05-02T16:21:51;18.40;34.80
70184;DHT22;57554;51.546;6.776;2023-05-02T16:24:17;18.30;34.80
70184;DHT22;57554;51.546;6.776;2023-05-02T16:26:45;18.30;34.50
70184;DHT22;57554;51.546;6.776;2023-05-02T16:29:11;18.30;34.00
70184;DHT22;57554;51.546;6.776;2023-05-02T16:31:37;18.10;34.50
70184;DHT22;57554;51.546;6.776;2023-05-02T16:34:02;18.00;34.50
70184;DHT22;57554;51.546;6.776;2023-05-02T16:36:36;17.90;34.90
70184;DHT22;57554;51.546;6.776;2023-05-02T16:39:36;17.80;34.90
70184;DHT22;57554;51.546;6.776;2023-05-02T16:42:24;17.60;35.20
70184;DHT22;57554;51.546;6.776;2023-05-02T16:45:05;17.50;35.50
70184;DHT22;57554;51.546;6.776;2023-05-02T16:47:36;17.30;36.20
70184;DHT22;57554;51.546;6.776;2023-05-02T16:50:08;17.20;36.10
70184;DHT22;57554;51.546;6.776;2023-05-02T16:52:33;17.10;36.50
70184;DHT22;57554;51.546;6.776;2023-05-02T16:55:12;17.00;36.60
70184;DHT22;57554;51.546;6.776;2023-05-02T16:58:08;16.90;36.90
70184;DHT22;57554;51.546;6.776;2023-05-02T17:00:40;16.90;37.20
70184;DHT22;57554;51.546;6.776;2023-05-02T17:03:29;16.90;37.00
70184;DHT22;57554;51.546;6.776;2023-05-02T17:06:06;17.00;36.10
70184;DHT22;57554;51.546;6.776;2023-05-02T17:08:41;16.90;36.30
70184;DHT22;57554;51.546;6.776;2023-05-02T17:11:18;16.80;36.60
70184;DHT22;57554;51.546;6.776;2023-05-02T17:13:58;16.90;36.90
70184;DHT22;57554;51.546;6.776;2023-05-02T17:16:33;16.90;37.40
70184;DHT22;57554;51.546;6.776;2023-05-02T17:18:59;17.00;37.10
70184;DHT22;57554;51.546;6.776;2023-05-02T17:21:34;17.10;36.80
70184;DHT22;57554;51.546;6.776;2023-05-02T17:24:43;17.10;36.20
70184;DHT22;57554;51.546;6.776;2023-05-02T17:27:19;17.10;36.50
70184;DHT22;57554;51.546;6.776;2023-05-02T17:30:01;17.00;36.70
70184;DHT22;57554;51.546;6.776;2023-05-02T17:32:35;16.90;36.90
70184;DHT22;57554;51.546;6.776;2023-05-02T17:35:28;16.80;36.60
70184;DHT22;57554;51.546;6.776;2023-05-02T17:38:02;16.90;36.70
70184;DHT22;57554;51.546;6.776;2023-05-02T17:40:31;17.10;36.50
70184;DHT22;57554;51.546;6.776;2023-05-02T17:43:19;17.50;36.00
70184;DHT22;57554;51.546;6.776;2023-05-02T17:45:48;17.60;35.60
70184;DHT22;57554;51.546;6.776;2023-05-02T17:48:20;17.80;35.30
70184;DHT22;57554;51.546;6.776;2023-05-02T17:50:55;17.80;34.80
70184;DHT22;57554;51.546;6.776;2023-05-02T17:56:10;17.40;35.00
70184;DHT22;57554;51.546;6.776;2023-05-02T17:58:49;17.20;35.70
70184;DHT22;57554;51.546;6.776;2023-05-02T18:01:35;17.10;35.90
70184;DHT22;57554;51.546;6.776;2023-05-02T18:04:14;17.10;35.70
70184;DHT22;57554;51.546;6.776;2023-05-02T18:07:08;17.30;35.40
70184;DHT22;57554;51.546;6.776;2023-05-02T18:13:31;17.30;35.40
70184;DHT22;57554;51.546;6.776;2023-05-02T18:16:14;17.10;35.90
70184;DHT22;57554;51.546;6.776;2023-05-02T18:18:46;17.20;36.20
70184;DHT22;57554;51.546;6.776;2023-05-02T18:21:19;17.40;36.00
70184;DHT22;57554;51.546;6.776;2023-05-02T18:23:49;17.60;35.60
70184;DHT22;57554;51.546;6.776;2023-05-02T18:29:06;17.60;35.50
70184;DHT22;57554;51.546;6.776;2023-05-02T18:31:35;17.80;35.50
70184;DHT22;57554;51.546;6.776;2023-05-02T18:34:10;17.90;35.00
70184;DHT22;57554;51.546;6.776;2023-05-02T18:36:38;17.80;34.70
70184;DHT22;57554;51.546;6.776;2023-05-02T18:39:19;17.80;34.70
70184;DHT22;57554;51.546;6.776;2023-05-02T18:41:57;17.60;34.60
70184;DHT22;57554;51.546;6.776;2023-05-02T18:44:28;17.30;34.90
70184;DHT22;57554;51.546;6.776;2023-05-02T18:46:57;17.00;35.10
70184;DHT22;57554;51.546;6.776;2023-05-02T18:49:25;16.60;35.50
70184;DHT22;57554;51.546;6.776;2023-05-02T18:51:57;16.20;35.90
70184;DHT22;57554;51.546;6.776;2023-05-02T18:54:35;15.90;36.30
70184;DHT22;57554;51.546;6.776;2023-05-02T18:57:03;15.50;36.70
70184;DHT22;57554;51.546;6.776;2023-05-02T18:59:55;15.30;37.00
70184;DHT22;57554;51.546;6.776;2023-05-02T19:02:29;15.00;37.30
70184;DHT22;57554;51.546;6.776;2023-05-02T19:04:58;14.70;37.70
70184;DHT22;57554;51.546;6.776;2023-05-02T19:07:26;14.50;38.00
70184;DHT22;57554;51.546;6.776;2023-05-02T19:10:04;14.30;38.40
70184;DHT22;57554;51.546;6.776;2023-05-02T19:12:37;14.10;38.70
70184;DHT22;57554;51.546;6.776;2023-05-02T19:15:11;13.90;38.90
70184;DHT22;57554;51.546;6.776;2023-05-02T19:20:48;13.60;39.40
70184;DHT22;57554;51.546;6.776;2023-05-02T19:26:16;13.30;39.80
70184;DHT22;57554;51.546;6.776;2023-05-02T19:28:48;13.10;40.00
70184;DHT22;57554;51.546;6.776;2023-05-02T19:31:19;13.00;40.30
70184;DHT22;57554;51.546;6.776;2023-05-02T19:33:54;12.90;40.50
70184;DHT22;57554;51.546;6.776;2023-05-02T19:36:25;12.70;40.60